Terminal Aerodrome Forecast
Issued by NWS Sioux Falls, SD

Home | Current Version | Previous Version | Text Only | Print | Product List | Glossary Off
Versions: 1 2 3 4 5 6 7 8 9 10 11 12

990
FTUS43 KFSD 201120
TAFHON
TAF
KHON 201120Z 2012/2112 33007KT P6SM SCT250
     FM201400 36008KT P6SM SCT200
     FM202300 03006KT P6SM SCT200
     FM210200 09005KT P6SM SCT200
     FM211100 14009KT P6SM BKN130=

USA.gov is the U.S. government's official web portal to all federal, state and local government web resources and services.